Time;durP1;ratioP1;P1;durP2;ratioP2;P2;SDS_P1;SDS_P2;PMS_P1;PMS_P2;Temp;Humidity;BMP_temperature;BMP_pressure;BME280_temperature;BME280_humidity;BME280_pressure;Samples;Min_cycle;Max_cycle;Signal;HPM_P1;HPM_P2
2022/02/01 00:02:06;;;;;;;17.02;1.42;;;4.10;97.80;;;;;;5023172;28;20029;-76
2022/02/01 00:09:44;;;;;;;14.63;1.43;;;3.90;98.00;;;;;;5054873;28;20025;-76
2022/02/01 00:12:19;;;;;;;13.87;2.33;;;3.90;97.80;;;;;;5038953;28;20036;-75
2022/02/01 00:33:58;;;;;;;16.27;1.57;;;3.80;98.10;;;;;;5016732;28;20057;-76
2022/02/01 00:36:35;;;;;;;12.13;1.67;;;3.70;98.20;;;;;;5053596;28;20040;-75
2022/02/01 00:39:05;;;;;;;15.03;1.70;;;3.70;98.10;;;;;;5039509;28;20025;-76
2022/02/01 00:41:31;;;;;;;11.80;1.87;;;3.70;98.20;;;;;;5037586;28;20028;-75
2022/02/01 00:43:58;;;;;;;19.63;1.90;;;3.70;98.20;;;;;;5054772;28;20051;-75
2022/02/01 00:46:24;;;;;;;21.20;2.37;;;3.70;98.30;;;;;;5054750;28;20021;-76
2022/02/01 00:48:50;;;;;;;16.27;1.67;;;3.70;98.40;;;;;;5036422;28;20575;-75
2022/02/01 00:51:16;;;;;;;15.27;1.57;;;3.70;98.40;;;;;;5036200;28;20025;-75
2022/02/01 00:53:42;;;;;;;8.90;1.43;;;3.70;98.50;;;;;;5054613;28;20465;-75
2022/02/01 00:56:09;;;;;;;13.60;1.53;;;3.70;98.50;;;;;;5036221;28;20052;-75
2022/02/01 00:58:35;;;;;;;15.60;2.13;;;3.70;98.50;;;;;;5054314;28;20539;-75
2022/02/01 01:01:01;;;;;;;18.37;2.00;;;3.80;98.60;;;;;;5036247;28;20025;-76
2022/02/01 01:03:27;;;;;;;12.77;1.97;;;3.70;98.60;;;;;;5054054;28;20345;-76
2022/02/01 01:05:53;;;;;;;13.43;1.33;;;3.80;98.60;;;;;;5036280;28;20033;-76
2022/02/01 01:08:19;;;;;;;11.77;1.67;;;3.80;98.60;;;;;;5019603;28;20484;-76
2022/02/01 01:10:45;;;;;;;10.27;1.20;;;3.80;98.60;;;;;;5053987;28;20523;-76
2022/02/01 01:15:46;;;;;;;10.80;1.80;;;3.80;98.60;;;;;;5054436;28;20120;-77
2022/02/01 01:18:37;;;;;;;14.10;2.03;;;3.80;98.50;;;;;;5054119;28;20028;-76
2022/02/01 01:54:17;;;;;;;12.23;1.27;;;3.60;99.00;;;;;;5038864;28;20099;-76
2022/02/01 01:56:43;;;;;;;12.87;1.30;;;3.70;99.10;;;;;;5035840;28;20135;-76
2022/02/01 01:59:10;;;;;;;11.23;2.07;;;3.80;99.10;;;;;;5035475;28;20032;-76
2022/02/01 02:01:36;;;;;;;17.27;1.83;;;3.70;99.10;;;;;;5035380;28;20112;-75
2022/02/01 02:04:02;;;;;;;13.80;1.70;;;3.80;99.20;;;;;;5035908;28;20009;-76
2022/02/01 02:06:31;;;;;;;14.57;2.10;;;3.80;99.30;;;;;;5053398;28;20103;-75
2022/02/01 02:08:58;;;;;;;16.10;1.93;;;3.80;99.30;;;;;;5053656;28;20487;-76
2022/02/01 02:11:31;;;;;;;13.97;1.97;;;3.80;99.30;;;;;;5035306;28;20374;-76
2022/02/01 02:16:59;;;;;;;15.77;1.67;;;3.80;99.30;;;;;;5052923;28;20432;-76
2022/02/01 02:19:28;;;;;;;20.83;2.00;;;3.80;99.30;;;;;;5053363;28;20118;-76
2022/02/01 02:22:02;;;;;;;11.10;1.33;;;3.80;99.30;;;;;;5035400;28;20017;-76
2022/02/01 02:24:33;;;;;;;13.03;1.73;;;3.80;99.20;;;;;;5035426;28;20021;-76
2022/02/01 02:27:00;;;;;;;14.67;1.33;;;3.90;99.20;;;;;;5052852;28;20035;-76
2022/02/01 02:29:26;;;;;;;17.57;1.63;;;3.90;99.20;;;;;;5035398;28;20041;-76
2022/02/01 02:31:52;;;;;;;11.57;1.70;;;3.90;99.20;;;;;;5053064;28;20117;-76
2022/02/01 02:34:19;;;;;;;16.77;1.80;;;3.90;99.10;;;;;;5035088;28;20132;-76
2022/02/01 02:36:55;;;;;;;13.57;1.17;;;3.90;99.10;;;;;;5039302;28;20086;-75
2022/02/01 02:42:10;;;;;;;14.03;1.63;;;4.00;99.10;;;;;;5040602;28;20112;-76
2022/02/01 02:47:21;;;;;;;10.57;1.53;;;4.00;99.00;;;;;;5056871;28;20052;-76
2022/02/01 02:49:47;;;;;;;18.83;2.13;;;4.10;98.90;;;;;;5056610;28;20035;-76
2022/02/01 02:52:14;;;;;;;11.20;1.70;;;4.10;98.90;;;;;;5056372;28;20481;-76
2022/02/01 02:54:40;;;;;;;13.63;1.40;;;4.00;98.80;;;;;;5039011;28;20098;-76
2022/02/01 02:57:06;;;;;;;15.20;1.30;;;4.20;98.80;;;;;;5022356;28;20438;-76
2022/02/01 02:59:32;;;;;;;7.97;0.97;;;4.10;98.60;;;;;;5056438;28;20111;-75
2022/02/01 03:01:59;;;;;;;18.27;1.73;;;4.00;98.50;;;;;;5038545;28;20060;-76
2022/02/01 03:04:27;;;;;;;9.03;1.00;;;4.00;98.40;;;;;;5038318;28;20079;-75
2022/02/01 03:06:54;;;;;;;14.00;1.47;;;4.10;98.50;;;;;;5038396;28;20032;-76
2022/02/01 03:09:21;;;;;;;10.07;1.07;;;4.00;98.40;;;;;;5021758;28;20033;-76
2022/02/01 03:11:49;;;;;;;9.50;1.00;;;4.00;98.40;;;;;;5022012;28;20025;-76
2022/02/01 03:22:10;;;;;;;12.75;1.85;;;4.00;98.40;;;;;;5056224;28;20019;-77
2022/02/01 03:24:35;;;;;;;10.13;1.07;;;4.10;98.50;;;;;;5038254;28;20123;-76
2022/02/01 03:27:01;;;;;;;13.53;2.77;;;4.20;98.60;;;;;;5038112;28;20040;-76
2022/02/01 03:29:27;;;;;;;12.40;1.10;;;4.10;98.60;;;;;;5038162;28;20036;-76
2022/02/01 03:31:52;;;;;;;14.10;2.07;;;4.10;98.60;;;;;;5021677;28;20039;-77
2022/02/01 03:34:18;;;;;;;14.37;1.53;;;4.10;98.70;;;;;;5037813;28;20493;-76
2022/02/01 03:36:44;;;;;;;16.57;1.40;;;4.20;98.70;;;;;;5055529;28;20044;-76
2022/02/01 03:39:10;;;;;;;8.87;0.90;;;4.20;98.70;;;;;;5021479;28;20029;-76
2022/02/01 03:41:36;;;;;;;16.77;1.37;;;4.30;98.80;;;;;;5056051;28;20024;-76
2022/02/01 03:44:05;;;;;;;14.43;1.37;;;4.20;98.70;;;;;;5037982;28;20040;-76
2022/02/01 03:46:31;;;;;;;11.80;1.87;;;4.30;99.00;;;;;;5054619;28;20060;-75
2022/02/01 03:48:57;;;;;;;15.07;1.30;;;4.30;98.80;;;;;;5037792;28;20063;-75
2022/02/01 03:51:23;;;;;;;11.00;1.67;;;4.30;98.80;;;;;;5055544;28;20036;-76
2022/02/01 03:53:49;;;;;;;13.47;1.40;;;4.40;98.80;;;;;;5038127;28;20377;-76
2022/02/01 03:56:14;;;;;;;15.23;1.57;;;4.40;98.80;;;;;;5037435;28;20061;-76
2022/02/01 03:58:40;;;;;;;10.30;1.27;;;4.40;98.70;;;;;;5037357;28;20108;-76
2022/02/01 04:01:06;;;;;;;14.80;1.83;;;4.40;98.70;;;;;;5055418;28;20104;-76
2022/02/01 04:03:32;;;;;;;9.43;1.33;;;4.40;98.70;;;;;;5020594;28;20074;-76
2022/02/01 04:05:57;;;;;;;10.87;1.40;;;4.50;98.70;;;;;;5054977;28;20044;-75
2022/02/01 04:08:24;;;;;;;14.90;2.13;;;4.40;98.70;;;;;;5055129;28;20458;-76
2022/02/01 04:10:50;;;;;;;14.60;2.13;;;4.50;98.70;;;;;;5037245;28;20477;-76
2022/02/01 04:13:17;;;;;;;11.40;1.30;;;4.50;98.60;;;;;;5054915;28;20075;-75
2022/02/01 04:15:43;;;;;;;7.30;1.17;;;4.60;98.70;;;;;;5020725;28;20061;-76
2022/02/01 04:18:09;;;;;;;14.07;1.50;;;4.50;98.60;;;;;;5055056;28;20122;-76
2022/02/01 04:20:35;;;;;;;11.17;1.53;;;4.50;98.60;;;;;;5037776;28;20036;-75
2022/02/01 04:23:01;;;;;;;15.33;1.63;;;4.50;98.60;;;;;;5020739;28;20352;-76
2022/02/01 04:25:27;;;;;;;8.87;1.20;;;4.40;98.60;;;;;;5037000;28;20104;-76
2022/02/01 04:27:53;;;;;;;17.13;1.33;;;4.50;98.60;;;;;;5036889;28;20504;-76
2022/02/01 04:30:19;;;;;;;7.53;1.07;;;4.50;98.60;;;;;;5037055;28;20037;-75
2022/02/01 04:32:47;;;;;;;10.13;1.07;;;4.50;98.60;;;;;;5054786;28;20051;-75
2022/02/01 04:35:21;;;;;;;9.10;2.03;;;4.50;98.60;;;;;;5036496;28;20131;-75
2022/02/01 04:37:47;;;;;;;;;;;4.50;98.60;;;;;;5055013;28;20059;-75
2022/02/01 04:40:15;;;;;;;10.13;1.03;;;4.50;98.60;;;;;;5036955;28;20007;-75
2022/02/01 04:42:41;;;;;;;10.60;1.33;;;4.50;98.50;;;;;;5054776;28;20021;-75
2022/02/01 04:45:14;;;;;;;9.00;1.10;;;4.40;98.50;;;;;;5036428;28;20032;-75
2022/02/01 04:47:40;;;;;;;8.97;1.60;;;4.40;98.60;;;;;;5054619;28;20028;-76
2022/02/01 04:50:13;;;;;;;8.27;1.33;;;4.40;98.60;;;;;;5054279;28;20060;-75
2022/02/01 04:52:41;;;;;;;16.70;2.17;;;4.40;98.60;;;;;;5036431;28;20028;-75
2022/02/01 04:55:07;;;;;;;16.97;1.63;;;4.40;98.60;;;;;;5036652;28;20086;-75
2022/02/01 04:57:33;;;;;;;14.07;1.60;;;4.40;98.70;;;;;;5054454;28;20104;-76
2022/02/01 04:59:58;;;;;;;11.53;1.20;;;4.40;98.60;;;;;;5035488;28;20021;-75
2022/02/01 05:02:24;;;;;;;7.40;1.10;;;4.50;98.70;;;;;;5036434;28;20135;-75
2022/02/01 05:04:50;;;;;;;13.03;1.57;;;4.40;98.70;;;;;;5036439;28;20036;-75
2022/02/01 05:07:20;;;;;;;11.47;1.13;;;4.50;98.70;;;;;;5019516;28;20017;-75
2022/02/01 05:09:46;;;;;;;20.67;1.70;;;4.40;98.70;;;;;;5036630;28;20024;-75
2022/02/01 05:12:12;;;;;;;7.73;1.30;;;4.50;99.00;;;;;;5036715;28;20045;-76
2022/02/01 05:14:37;;;;;;;11.90;1.17;;;4.40;98.80;;;;;;5053937;28;20048;-76
2022/02/01 05:17:03;;;;;;;10.13;1.67;;;4.40;98.80;;;;;;5053589;28;20033;-76
2022/02/01 05:19:46;;;;;;;10.40;1.70;;;4.50;98.80;;;;;;5053643;28;20435;-75
2022/02/01 05:22:15;;;;;;;11.37;2.03;;;4.40;98.90;;;;;;5035717;28;20028;-76
2022/02/01 05:24:42;;;;;;;13.33;1.17;;;4.40;98.90;;;;;;5053497;28;20025;-75
2022/02/01 05:27:11;;;;;;;16.23;2.50;;;4.50;98.90;;;;;;5053338;28;20027;-76
2022/02/01 05:29:38;;;;;;;15.70;1.30;;;4.40;98.90;;;;;;5035472;28;20060;-76
2022/02/01 05:32:19;;;;;;;9.07;1.67;;;4.40;98.90;;;;;;5035448;28;20044;-76
2022/02/01 05:34:45;;;;;;;18.57;2.67;;;4.40;99.00;;;;;;5035344;28;20049;-75
2022/02/01 05:37:10;;;;;;;17.20;2.00;;;4.40;99.10;;;;;;5035290;28;20037;-75
2022/02/01 05:39:37;;;;;;;18.30;1.50;;;4.40;99.00;;;;;;5019047;28;20028;-75
2022/02/01 05:42:03;;;;;;;15.13;1.67;;;4.40;99.10;;;;;;5053607;28;20025;-76
2022/02/01 05:44:28;;;;;;;12.43;1.40;;;4.30;99.20;;;;;;5035772;28;20100;-75
2022/02/01 05:46:54;;;;;;;16.30;2.23;;;4.50;99.30;;;;;;5018982;28;20488;-76
2022/02/01 05:49:19;;;;;;;14.80;1.73;;;4.40;99.40;;;;;;5035691;28;20021;-75
2022/02/01 05:51:49;;;;;;;16.50;1.73;;;4.40;99.50;;;;;;5035660;28;20465;-76
2022/02/01 05:54:15;;;;;;;10.40;1.50;;;4.40;99.50;;;;;;5025888;28;20397;-75
2022/02/01 05:56:41;;;;;;;16.90;2.03;;;4.40;99.50;;;;;;5035438;28;20029;-75
2022/02/01 05:59:06;;;;;;;17.80;2.23;;;4.40;99.50;;;;;;5018824;28;20025;-75
2022/02/01 06:01:32;;;;;;;9.77;1.90;;;4.40;99.60;;;;;;5035270;28;20477;-75
2022/02/01 06:03:58;;;;;;;10.37;1.97;;;4.50;99.60;;;;;;5035216;28;20032;-76
2022/02/01 06:06:23;;;;;;;16.47;2.13;;;4.50;99.60;;;;;;5035242;28;20351;-75
2022/02/01 06:08:49;;;;;;;15.20;2.30;;;4.50;99.60;;;;;;5052661;28;20029;-76
2022/02/01 06:11:14;;;;;;;10.50;1.53;;;4.50;99.60;;;;;;5038804;28;20074;-75
2022/02/01 06:13:40;;;;;;;10.93;1.73;;;4.60;99.70;;;;;;5039358;28;20033;-74
2022/02/01 06:16:07;;;;;;;14.23;1.73;;;4.60;99.70;;;;;;5038924;28;20039;-74
2022/02/01 06:18:33;;;;;;;20.77;2.43;;;4.60;99.60;;;;;;5057303;28;20053;-75
2022/02/01 06:21:00;;;;;;;11.73;2.13;;;4.60;99.60;;;;;;5039375;28;20075;-75
2022/02/01 06:23:27;;;;;;;14.17;2.27;;;4.60;99.60;;;;;;5039309;28;20048;-75
2022/02/01 06:25:55;;;;;;;13.07;2.73;;;4.60;99.60;;;;;;5057148;28;20033;-74
2022/02/01 06:28:26;;;;;;;14.43;2.57;;;4.60;99.60;;;;;;5056823;28;20075;-76
2022/02/01 06:30:53;;;;;;;9.70;1.93;;;4.60;99.60;;;;;;5022422;28;20043;-76
2022/02/01 06:33:19;;;;;;;12.07;2.10;;;4.70;99.60;;;;;;5038858;28;20044;-75
2022/02/01 06:35:45;;;;;;;14.23;2.50;;;4.70;99.70;;;;;;5039137;28;20095;-75
2022/02/01 06:38:11;;;;;;;20.20;3.87;;;4.70;99.70;;;;;;5038603;28;20029;-75
2022/02/01 06:40:38;;;;;;;16.17;2.63;;;4.70;99.80;;;;;;5038878;28;20108;-76
2022/02/01 06:43:03;;;;;;;15.80;3.00;;;4.70;99.90;;;;;;5038157;28;20017;-75
2022/02/01 06:45:30;;;;;;;16.63;3.03;;;4.70;99.90;;;;;;5038728;28;20033;-74
2022/02/01 06:47:56;;;;;;;18.63;4.03;;;4.70;99.90;;;;;;5038841;28;20029;-75
2022/02/01 06:50:22;;;;;;;16.70;3.40;;;4.80;99.90;;;;;;5056467;28;20040;-74
2022/02/01 06:52:57;;;;;;;15.70;4.00;;;4.70;99.90;;;;;;5038301;28;20401;-75
2022/02/01 06:58:03;;;;;;;20.40;4.30;;;4.80;99.90;;;;;;5056237;28;20029;-74
2022/02/01 07:00:29;;;;;;;17.83;3.90;;;4.90;99.90;;;;;;5056094;28;20017;-75
2022/02/01 07:02:55;;;;;;;19.07;4.77;;;4.90;99.90;;;;;;5022171;28;20025;-74
2022/02/01 07:05:21;;;;;;;17.47;4.20;;;4.90;99.90;;;;;;5038333;28;20036;-75
2022/02/01 07:07:47;;;;;;;20.47;4.47;;;4.90;99.90;;;;;;5038662;28;20040;-76
2022/02/01 07:10:12;;;;;;;21.40;5.03;;;5.00;99.90;;;;;;5022040;28;20477;-74
2022/02/01 07:12:38;;;;;;;26.17;5.40;;;5.00;99.90;;;;;;5056588;28;20035;-75
2022/02/01 07:15:04;;;;;;;21.53;5.60;;;5.00;99.90;;;;;;5038228;28;20037;-74
2022/02/01 07:17:30;;;;;;;15.87;5.40;;;5.00;99.90;;;;;;5055594;28;20025;-75
2022/02/01 07:19:55;;;;;;;18.43;4.90;;;5.00;99.90;;;;;;5056331;28;20112;-74
2022/02/01 07:22:21;;;;;;;21.67;5.83;;;5.00;99.90;;;;;;5037072;28;20032;-74
2022/02/01 07:24:58;;;;;;;22.80;7.03;;;5.00;99.90;;;;;;5037387;28;20123;-74
2022/02/01 07:27:42;;;;;;;24.30;6.07;;;5.10;99.90;;;;;;5039793;28;20017;-76
2022/02/01 07:30:11;;;;;;;17.33;6.13;;;5.00;99.90;;;;;;5040802;28;20101;-75
2022/02/01 07:32:36;;;;;;;21.70;5.87;;;5.00;99.90;;;;;;5056111;28;20029;-76
2022/02/01 07:35:04;;;;;;;22.67;6.63;;;5.00;99.90;;;;;;5055330;28;20041;-75
2022/02/01 07:37:30;;;;;;;18.77;6.57;;;5.00;99.90;;;;;;5055649;28;20024;-76
2022/02/01 07:39:56;;;;;;;26.87;7.93;;;5.10;99.90;;;;;;5021243;28;20536;-75
2022/02/01 07:42:21;;;;;;;24.37;8.00;;;5.00;99.90;;;;;;5055631;28;20096;-75
2022/02/01 07:44:47;;;;;;;30.83;10.20;;;5.00;99.90;;;;;;5055471;28;20029;-75
2022/02/01 07:47:21;;;;;;;28.87;10.27;;;5.10;99.90;;;;;;5037597;28;20059;-75
2022/02/01 07:49:47;;;;;;;24.95;11.52;;;5.00;99.90;;;;;;5037440;28;20377;-75
2022/02/01 07:52:12;;;;;;;30.13;12.33;;;5.00;99.90;;;;;;5037277;28;20029;-75
2022/02/01 07:54:38;;;;;;;25.97;11.43;;;5.00;99.90;;;;;;5037408;28;20075;-75
2022/02/01 07:57:06;;;;;;;29.43;13.63;;;5.00;99.90;;;;;;5020983;28;20033;-76
2022/02/01 07:59:32;;;;;;;36.27;14.60;;;5.00;99.90;;;;;;5004809;28;20504;-77
2022/02/01 08:01:58;;;;;;;34.57;14.17;;;5.00;99.90;;;;;;5020699;28;20032;-79
2022/02/01 08:04:24;;;;;;;39.13;17.17;;;5.00;99.90;;;;;;5004485;28;20374;-79
2022/02/01 08:06:50;;;;;;;34.90;15.77;;;5.10;99.90;;;;;;5036956;28;20029;-79
2022/02/01 08:09:26;;;;;;;36.47;16.00;;;5.10;99.90;;;;;;5037196;28;20492;-79
2022/02/01 08:11:52;;;;;;;37.10;16.30;;;5.10;99.90;;;;;;5032904;28;20025;-78
2022/02/01 08:16:56;;;;;;;31.40;16.50;;;5.10;99.90;;;;;;5036408;28;20048;-78
2022/02/01 08:19:28;;;;;;;37.17;16.93;;;5.10;99.90;;;;;;5020449;28;20369;-78
2022/02/01 08:21:55;;;;;;;30.60;17.87;;;5.10;99.90;;;;;;5036348;28;20077;-78
2022/02/01 08:24:21;;;;;;;31.53;18.53;;;5.20;99.90;;;;;;5036167;28;20074;-79
2022/02/01 08:26:47;;;;;;;38.57;21.27;;;5.20;99.90;;;;;;5035871;28;20024;-78
2022/02/01 08:29:14;;;;;;;40.27;19.77;;;5.20;99.90;;;;;;5036127;28;20484;-79
2022/02/01 08:31:40;;;;;;;40.20;20.37;;;5.20;99.90;;;;;;5035358;28;20036;-78
2022/02/01 08:34:09;;;;;;;39.83;20.30;;;5.30;99.90;;;;;;5053061;28;20049;-78
2022/02/01 08:36:34;;;;;;;37.67;21.03;;;5.30;99.90;;;;;;5053283;28;20033;-79
2022/02/01 08:39:02;;;;;;;39.67;20.63;;;5.20;99.90;;;;;;5019055;28;20041;-80
2022/02/01 08:41:27;;;;;;;38.17;21.80;;;5.20;99.90;;;;;;5035091;28;20033;-79
2022/02/01 08:43:54;;;;;;;35.83;21.47;;;5.40;99.90;;;;;;5018794;28;20033;-81
2022/02/01 08:46:23;;;;;;;36.73;22.13;;;5.30;99.90;;;;;;5052940;28;20040;-79
2022/02/01 08:48:49;;;;;;;40.87;21.57;;;5.30;99.90;;;;;;5035922;28;20033;-79
2022/02/01 08:51:17;;;;;;;39.90;22.43;;;5.30;99.90;;;;;;5035503;28;20488;-78
2022/02/01 08:53:47;;;;;;;38.07;22.17;;;5.40;99.90;;;;;;5053766;28;20060;-80
2022/02/01 08:57:21;;;;;;;38.63;23.87;;;5.40;99.90;;;;;;5035947;28;20033;-77
2022/02/01 08:58:59;;;;;;;43.37;22.43;;;5.40;99.90;;;;;;5038841;28;20033;-78
2022/02/01 09:01:25;;;;;;;44.27;24.23;;;5.40;99.90;;;;;;5036309;28;20033;-77
2022/02/01 09:03:52;;;;;;;41.67;21.83;;;5.40;99.90;;;;;;5036475;28;20035;-77
2022/02/01 09:06:22;;;;;;;34.63;21.97;;;5.40;99.90;;;;;;5036299;28;20032;-76
2022/02/01 09:08:47;;;;;;;34.57;20.47;;;5.50;99.90;;;;;;5053788;28;20024;-78
2022/02/01 09:11:14;;;;;;;36.60;21.57;;;5.50;99.90;;;;;;5003064;28;20036;-80
2022/02/01 09:13:40;;;;;;;33.93;20.27;;;5.50;99.90;;;;;;5019580;28;20439;-79
2022/02/01 09:16:06;;;;;;;37.83;19.97;;;5.60;99.90;;;;;;5053776;28;20076;-78
2022/02/01 09:18:31;;;;;;;30.30;19.53;;;5.60;99.90;;;;;;5053730;28;20480;-78
2022/02/01 09:20:58;;;;;;;34.67;20.60;;;5.60;99.90;;;;;;5019499;28;20029;-84
2022/02/01 09:23:23;;;;;;;34.93;21.30;;;5.60;99.90;;;;;;5003557;28;20025;-81
2022/02/01 09:25:49;;;;;;;34.43;20.47;;;5.60;99.90;;;;;;5036078;28;20530;-79
2022/02/01 09:28:15;;;;;;;34.13;21.13;;;5.60;99.90;;;;;;5035841;28;20033;-80
2022/02/01 09:30:40;;;;;;;30.73;19.57;;;5.60;99.90;;;;;;5035733;28;20061;-78
2022/02/01 09:33:06;;;;;;;36.10;19.97;;;5.70;99.90;;;;;;5035651;28;20112;-77
2022/02/01 09:35:32;;;;;;;31.67;20.20;;;5.70;99.90;;;;;;5035365;28;20028;-78
2022/02/01 09:37:57;;;;;;;34.13;19.67;;;5.80;99.90;;;;;;5035696;28;20033;-77
2022/02/01 09:40:24;;;;;;;33.37;19.80;;;5.70;99.90;;;;;;5019267;28;20028;-79
2022/02/01 09:42:49;;;;;;;32.80;19.17;;;5.70;99.90;;;;;;5035418;28;20419;-83
2022/02/01 09:45:15;;;;;;;30.83;18.20;;;5.80;99.90;;;;;;5002834;28;20031;-77
2022/02/01 09:47:46;;;;;;;29.30;17.80;;;5.70;99.90;;;;;;5018707;28;20090;-81
2022/02/01 09:50:15;;;;;;;31.20;18.27;;;5.80;99.90;;;;;;5035046;28;20466;-78
2022/02/01 09:52:40;;;;;;;27.33;17.03;;;6.00;99.90;;;;;;5035258;28;20017;-84
2022/02/01 09:55:09;;;;;;;26.87;17.10;;;5.90;99.90;;;;;;5053056;28;20075;-78
2022/02/01 09:57:36;;;;;;;24.07;15.23;;;5.90;99.90;;;;;;5035401;28;20036;-80
2022/02/01 10:00:10;;;;;;;26.40;15.83;;;5.90;99.90;;;;;;5035697;28;20086;-81
2022/02/01 10:02:41;;;;;;;24.25;14.63;;;6.00;99.90;;;;;;5036230;28;20082;-78
2022/02/01 10:05:12;;;;;;;21.90;14.50;;;6.00;99.90;;;;;;5053097;28;20030;-78
2022/02/01 10:07:50;;;;;;;21.20;13.10;;;6.00;99.90;;;;;;5035330;28;20021;-77
2022/02/01 10:10:16;;;;;;;20.03;12.53;;;6.00;99.90;;;;;;5035388;28;20037;-77
2022/02/01 10:12:43;;;;;;;23.07;12.20;;;6.10;99.90;;;;;;5035457;28;20123;-79
2022/02/01 10:15:23;;;;;;;20.00;11.20;;;6.10;99.90;;;;;;5035234;28;20094;-81
2022/02/01 10:17:56;;;;;;;22.33;11.00;;;6.10;99.90;;;;;;5020234;28;20029;-77
2022/02/01 10:20:35;;;;;;;17.73;10.88;;;6.30;99.90;;;;;;5020010;28;20032;-78
2022/02/01 10:23:16;;;;;;;19.67;11.47;;;6.20;99.90;;;;;;5053207;28;20104;-78
2022/02/01 10:25:42;;;;;;;18.77;9.93;;;6.20;99.90;;;;;;5052834;28;20037;-86
2022/02/01 10:28:11;;;;;;;19.90;11.27;;;6.30;99.90;;;;;;5018518;28;20082;-82
2022/02/01 10:30:44;;;;;;;19.97;10.87;;;6.20;99.90;;;;;;5034959;28;20365;-80
2022/02/01 10:33:42;;;;;;;16.97;9.60;;;6.30;99.90;;;;;;5019296;28;20489;-81
2022/02/01 10:36:04;;;;;;;19.30;10.47;;;6.30;99.90;;;;;;5052632;28;20029;-85
2022/02/01 10:38:33;;;;;;;19.07;10.53;;;6.30;99.90;;;;;;5018466;28;20078;-85
2022/02/01 10:40:58;;;;;;;16.83;9.67;;;6.30;99.90;;;;;;5052499;28;20541;-83
2022/02/01 10:43:30;;;;;;;19.00;10.47;;;6.40;99.90;;;;;;5052791;28;20096;-83
2022/02/01 10:46:09;;;;;;;15.97;9.57;;;6.40;99.90;;;;;;5032106;28;20033;-84
2022/02/01 10:48:36;;;;;;;16.27;10.27;;;6.40;99.90;;;;;;5041640;28;20488;-82
2022/02/01 10:51:08;;;;;;;15.80;9.47;;;6.50;99.90;;;;;;5034839;28;20037;-84
2022/02/01 10:53:35;;;;;;;15.97;9.83;;;6.40;99.90;;;;;;5034938;28;20029;-78
2022/02/01 10:56:03;;;;;;;18.07;10.13;;;6.50;99.90;;;;;;5035885;28;20037;-79
2022/02/01 10:58:30;;;;;;;16.83;10.37;;;6.60;99.90;;;;;;5056360;28;20036;-79
2022/02/01 11:00:57;;;;;;;18.17;10.20;;;6.60;99.90;;;;;;5038240;28;20037;-84
2022/02/01 11:03:24;;;;;;;18.00;10.13;;;6.60;99.90;;;;;;5021906;28;20079;-79
2022/02/01 11:05:53;;;;;;;15.83;9.77;;;6.60;99.90;;;;;;5038564;28;20033;-84
2022/02/01 11:08:26;;;;;;;16.53;9.07;;;6.70;99.90;;;;;;5056148;28;20028;-86
2022/02/01 11:10:54;;;;;;;17.60;9.33;;;6.70;99.90;;;;;;5038823;28;20029;-77
2022/02/01 11:13:20;;;;;;;15.87;9.73;;;6.80;99.90;;;;;;5038806;28;20029;-81
2022/02/01 11:16:03;;;;;;;15.67;8.90;;;6.70;99.90;;;;;;5056015;28;20028;-87
2022/02/01 11:18:29;;;;;;;12.47;7.33;;;6.80;99.90;;;;;;5055993;28;20017;-85
2022/02/01 11:21:15;;;;;;;17.27;9.17;;;6.80;99.90;;;;;;5038370;28;20029;-82
2022/02/01 11:23:52;;;;;;;16.00;7.93;;;6.80;99.90;;;;;;5038011;28;20009;-78
2022/02/01 11:26:36;;;;;;;15.07;7.73;;;7.00;99.90;;;;;;5038067;28;20086;-85
2022/02/01 11:29:40;;;;;;;13.07;7.85;;;6.90;99.90;;;;;;5037992;28;20116;-78
2022/02/01 11:32:03;;;;;;;14.97;7.30;;;7.00;99.90;;;;;;5055177;28;20025;-83
2022/02/01 11:34:37;;;;;;;12.27;7.23;;;7.00;99.90;;;;;;5037798;28;20396;-82
2022/02/01 11:37:11;;;;;;;10.23;6.50;;;7.10;99.90;;;;;;5055691;28;20075;-83
2022/02/01 11:39:51;;;;;;;11.40;6.28;;;7.10;99.90;;;;;;5055775;28;20022;-83
2022/02/01 11:42:18;;;;;;;11.83;6.90;;;7.20;99.90;;;;;;5037771;28;20025;-81
2022/02/01 11:44:44;;;;;;;10.87;5.97;;;7.20;99.90;;;;;;5020969;28;20029;-79
2022/02/01 11:47:21;;;;;;;11.27;5.33;;;7.20;99.90;;;;;;5055343;28;20116;-79
2022/02/01 11:49:54;;;;;;;8.90;5.23;;;7.30;99.90;;;;;;5022096;28;20385;-78
2022/02/01 11:52:21;;;;;;;10.07;6.07;;;7.40;99.90;;;;;;5037305;28;20048;-79
2022/02/01 11:54:49;;;;;;;10.20;5.50;;;7.40;99.90;;;;;;5021173;28;20480;-87
2022/02/01 11:57:17;;;;;;;10.97;5.93;;;7.50;99.90;;;;;;5054976;28;20031;-79
2022/02/01 12:00:12;;;;;;;10.40;6.00;;;7.50;99.90;;;;;;5037352;28;20021;-80
2022/02/01 12:02:39;;;;;;;10.87;6.67;;;7.50;99.90;;;;;;5023558;28;20536;-82
2022/02/01 12:05:15;;;;;;;11.47;6.77;;;7.60;99.90;;;;;;5021055;28;20124;-82
2022/02/01 12:08:05;;;;;;;11.00;7.00;;;7.50;99.90;;;;;;5036646;28;20520;-79
2022/02/01 12:10:48;;;;;;;11.57;7.00;;;7.70;99.90;;;;;;5054966;28;20017;-83
2022/02/01 12:13:16;;;;;;;12.90;7.90;;;7.70;99.90;;;;;;5037355;28;20029;-82
2022/02/01 12:15:44;;;;;;;13.77;8.03;;;7.70;99.90;;;;;;5036961;28;20033;-84
2022/02/01 12:18:24;;;;;;;13.17;8.13;;;7.80;99.90;;;;;;5004466;28;20472;-84
2022/02/01 12:21:31;;;;;;;15.47;7.93;;;7.70;99.90;;;;;;5055046;28;20041;-84
2022/02/01 12:23:59;;;;;;;16.80;10.07;;;7.80;99.90;;;;;;5024087;28;20032;-84
2022/02/01 12:26:26;;;;;;;14.63;10.07;;;7.80;99.90;;;;;;5037151;28;20029;-88
2022/02/01 12:28:55;;;;;;;18.60;10.73;;;7.80;99.90;;;;;;5036801;28;20469;-83
2022/02/01 12:31:22;;;;;;;22.83;11.13;;;7.90;99.90;;;;;;5054535;28;20480;-81
2022/02/01 12:33:52;;;;;;;27.77;11.97;;;7.90;99.90;;;;;;5036527;28;20055;-84
2022/02/01 12:36:25;;;;;;;27.03;11.77;;;8.00;99.90;;;;;;5055445;28;20036;-81
2022/02/01 12:39:03;;;;;;;18.52;8.73;;;8.10;99.90;;;;;;5036513;28;20366;-81
2022/02/01 12:41:42;;;;;;;29.40;9.67;;;8.10;99.90;;;;;;5036412;28;20027;-84
2022/02/01 12:46:47;;;;;;;25.50;8.60;;;8.30;99.90;;;;;;5037217;28;20132;-85
2022/02/01 12:49:14;;;;;;;28.13;8.30;;;8.20;99.90;;;;;;5036468;28;20496;-86
2022/02/01 12:51:48;;;;;;;27.33;8.93;;;8.30;99.90;;;;;;5054152;28;20021;-80
2022/02/01 12:54:44;;;;;;;26.65;7.70;;;8.30;99.90;;;;;;5036272;28;20017;-82
2022/02/01 12:57:12;;;;;;;26.83;7.80;;;8.40;99.90;;;;;;5028090;28;20396;-82
2022/02/01 12:59:50;;;;;;;22.67;7.20;;;8.30;99.90;;;;;;5053736;28;20454;-84
2022/02/01 13:02:22;;;;;;;22.47;8.00;;;8.40;99.90;;;;;;5054032;28;20086;-79
2022/02/01 13:04:53;;;;;;;24.13;7.60;;;8.40;99.90;;;;;;5054069;28;20025;-80
2022/02/01 13:08:23;;;;;;;25.70;7.27;;;8.40;99.90;;;;;;5035922;28;20024;-85
2022/02/01 13:20:57;;;;;;;24.00;6.17;;;8.60;99.90;;;;;;5018689;28;20111;-84
2022/02/01 13:23:53;;;;;;;17.80;6.37;;;8.60;99.90;;;;;;5053767;28;20358;-78
2022/02/01 13:26:26;;;;;;;13.83;5.40;;;8.60;99.90;;;;;;5035264;28;20080;-82
2022/02/01 13:29:02;;;;;;;20.20;5.57;;;8.70;99.90;;;;;;5020217;28;20645;-86
2022/02/01 13:31:35;;;;;;;16.20;5.53;;;8.70;99.90;;;;;;5035676;28;20031;-83
2022/02/01 13:34:06;;;;;;;17.37;5.07;;;8.80;99.90;;;;;;5032235;28;20140;-80
2022/02/01 13:36:32;;;;;;;18.27;4.93;;;8.90;99.90;;;;;;5032596;28;20107;-82
2022/02/01 13:39:04;;;;;;;11.47;4.27;;;8.90;99.90;;;;;;5032648;28;20022;-84
2022/02/01 13:41:33;;;;;;;12.20;4.53;;;8.80;99.90;;;;;;5033505;28;20044;-79
2022/02/01 13:44:00;;;;;;;13.63;4.10;;;8.90;99.90;;;;;;5032022;28;20376;-82
2022/02/01 13:46:31;;;;;;;11.93;3.67;;;9.00;99.90;;;;;;5032494;28;20411;-82
2022/02/01 13:49:09;;;;;;;14.97;4.67;;;9.00;99.90;;;;;;5032034;28;20107;-81
2022/02/01 13:51:46;;;;;;;14.33;4.20;;;9.00;99.90;;;;;;5032262;28;20024;-80
2022/02/01 13:54:12;;;;;;;13.50;4.33;;;9.10;99.90;;;;;;5015454;28;20048;-84
2022/02/01 13:56:44;;;;;;;12.97;2.90;;;9.00;99.90;;;;;;5031803;28;20484;-84
2022/02/01 13:59:15;;;;;;;10.63;3.70;;;9.10;99.90;;;;;;5032228;28;20033;-80
2022/02/01 14:01:43;;;;;;;14.20;3.40;;;9.00;99.90;;;;;;5032102;28;20473;-83
2022/02/01 14:04:13;;;;;;;15.43;3.70;;;9.10;99.90;;;;;;5015765;28;20026;-82
2022/02/01 14:06:53;;;;;;;19.50;3.27;;;9.10;99.90;;;;;;5032228;28;20106;-85
2022/02/01 14:23:41;;;;;;;15.43;3.40;;;9.20;99.90;;;;;;5022141;28;20473;-82
2022/02/01 14:33:54;;;;;;;13.68;3.55;;;9.20;99.90;;;;;;5043114;28;20469;-82
2022/02/01 14:36:21;;;;;;;12.13;3.60;;;9.20;99.90;;;;;;5050303;28;20104;-83
2022/02/01 14:39:09;;;;;;;13.07;3.63;;;9.20;99.90;;;;;;5035915;28;20366;-82
2022/02/01 14:44:43;;;;;;;14.30;2.90;;;9.20;99.90;;;;;;5037312;28;20041;-76
2022/02/01 14:47:11;;;;;;;11.60;2.80;;;9.20;99.90;;;;;;5035378;28;20029;-86
2022/02/01 14:49:37;;;;;;;10.00;2.80;;;9.40;99.90;;;;;;5035597;28;20291;-83
2022/02/01 14:52:05;;;;;;;11.80;2.20;;;9.20;99.90;;;;;;5018891;28;20026;-83
2022/02/01 14:54:34;;;;;;;14.37;2.57;;;9.30;99.90;;;;;;5035201;28;20036;-84
2022/02/01 15:05:31;;;;;;;11.93;2.47;;;9.30;99.90;;;;;;5037082;28;19963;-81